Time;durP1;ratioP1;P1;durP2;ratioP2;P2;SDS_P1;SDS_P2;PMS_P1;PMS_P2;Temp;Humidity;BMP_temperature;BMP_pressure;BME280_temperature;BME280_humidity;BME280_pressure;Samples;Min_cycle;Max_cycle;Signal;HPM_P1;HPM_P2
2021/10/31 00:00:53;;;;;;;1999.90;999.90;;;0.90;99.90;;;;;;5098981;28;20024;-80
2021/10/31 00:03:18;;;;;;;1999.90;999.90;;;0.80;99.90;;;;;;5098924;28;20024;-79
2021/10/31 00:05:45;;;;;;;1999.90;999.90;;;0.70;99.90;;;;;;5116805;28;20024;-79
2021/10/31 00:08:11;;;;;;;1999.90;999.90;;;0.80;99.90;;;;;;5098433;28;20094;-80
2021/10/31 00:10:37;;;;;;;1999.90;999.90;;;0.90;99.90;;;;;;5098036;28;20031;-80
2021/10/31 00:13:03;;;;;;;1999.90;999.90;;;0.90;99.90;;;;;;5098219;28;20020;-80
2021/10/31 00:15:29;;;;;;;1999.90;999.90;;;1.00;99.90;;;;;;5098180;28;20164;-80
2021/10/31 00:17:55;;;;;;;1999.90;999.90;;;0.90;99.90;;;;;;5116545;28;20053;-80
2021/10/31 00:20:21;;;;;;;1999.90;999.90;;;0.90;99.90;;;;;;5098535;28;20095;-82
2021/10/31 00:22:47;;;;;;;1999.90;999.90;;;0.90;99.90;;;;;;5116868;28;20463;-80
2021/10/31 00:25:14;;;;;;;1999.90;999.90;;;0.90;99.90;;;;;;5098380;28;20038;-80
2021/10/31 00:27:40;;;;;;;1999.90;999.90;;;0.90;99.90;;;;;;5098341;28;20136;-80
2021/10/31 00:30:07;;;;;;;1999.90;999.90;;;0.90;99.90;;;;;;5098277;28;20471;-80
2021/10/31 00:32:33;;;;;;;1999.90;999.90;;;0.90;99.90;;;;;;5098073;28;20502;-80
2021/10/31 00:34:58;;;;;;;1999.90;999.90;;;0.80;99.90;;;;;;5098234;28;20115;-79
2021/10/31 00:37:24;;;;;;;1999.90;999.90;;;0.80;99.90;;;;;;5097938;28;20470;-81
2021/10/31 00:39:50;;;;;;;1999.90;999.90;;;0.80;99.90;;;;;;5098517;28;20027;-80
2021/10/31 00:42:16;;;;;;;1999.90;999.90;;;0.80;99.90;;;;;;5098088;28;20043;-81
2021/10/31 00:44:42;;;;;;;1999.90;999.90;;;0.70;99.90;;;;;;5116314;28;20047;-82
2021/10/31 00:47:08;;;;;;;1999.90;999.90;;;0.80;99.90;;;;;;5097875;28;20069;-82
2021/10/31 00:49:33;;;;;;;1999.90;999.90;;;0.70;99.90;;;;;;5116417;28;20048;-83
2021/10/31 00:52:01;;;;;;;1999.90;999.90;;;0.70;99.90;;;;;;5097893;28;20051;-80
2021/10/31 00:54:27;;;;;;;1999.90;999.90;;;0.70;99.90;;;;;;5097939;28;20027;-81
2021/10/31 00:56:53;;;;;;;1999.90;999.90;;;0.60;99.90;;;;;;5097470;28;20027;-80
2021/10/31 00:59:19;;;;;;;1999.90;999.90;;;0.70;99.90;;;;;;5097846;28;20038;-82
2021/10/31 01:01:46;;;;;;;1999.90;999.90;;;0.80;99.90;;;;;;5097587;28;20015;-80
2021/10/31 01:04:12;;;;;;;1999.90;999.90;;;0.90;99.90;;;;;;5097682;28;20490;-81
2021/10/31 01:06:57;;;;;;;1999.90;999.90;;;0.80;99.90;;;;;;5097522;28;20049;-80
2021/10/31 01:09:28;;;;;;;1999.90;999.90;;;0.80;99.90;;;;;;5097718;28;20390;-82
2021/10/31 01:12:07;;;;;;;1999.90;999.90;;;0.80;99.90;;;;;;5097423;28;20024;-79
2021/10/31 01:14:52;;;;;;;1999.90;999.90;;;0.90;99.90;;;;;;5110059;28;20506;-80
2021/10/31 01:17:48;;;;;;;1999.90;999.90;;;0.80;99.90;;;;;;5115609;28;20022;-81
2021/10/31 01:20:38;;;;;;;1999.90;999.90;;;0.80;99.90;;;;;;5115710;28;20045;-81
2021/10/31 01:23:23;;;;;;;1999.90;999.90;;;0.80;99.90;;;;;;5097230;28;20031;-81
2021/10/31 01:26:11;;;;;;;1999.90;999.90;;;0.80;99.90;;;;;;5096448;28;20023;-81
2021/10/31 01:29:09;;;;;;;1999.90;999.90;;;0.80;99.90;;;;;;5096766;28;20482;-81
2021/10/31 01:31:44;;;;;;;1999.90;999.90;;;0.80;99.90;;;;;;5115431;28;20020;-81
2021/10/31 01:34:17;;;;;;;1999.90;999.90;;;0.80;99.90;;;;;;5097262;28;20019;-82
2021/10/31 01:36:48;;;;;;;1999.90;999.90;;;0.80;99.90;;;;;;5096987;28;20034;-82
2021/10/31 01:39:22;;;;;;;1999.90;999.90;;;0.80;99.90;;;;;;5097019;28;20027;-82
2021/10/31 01:42:15;;;;;;;1999.90;999.90;;;0.90;99.90;;;;;;5096900;28;20083;-81
2021/10/31 01:45:02;;;;;;;1999.90;999.90;;;0.90;99.90;;;;;;5096945;28;20115;-81
2021/10/31 01:47:40;;;;;;;1999.90;999.90;;;0.80;99.90;;;;;;5096662;28;20024;-81
2021/10/31 01:50:08;;;;;;;1999.90;999.90;;;0.80;99.90;;;;;;5114899;28;20048;-81
2021/10/31 01:52:39;;;;;;;1999.90;999.90;;;0.90;99.90;;;;;;5096689;28;20031;-81
2021/10/31 01:55:07;;;;;;;1999.90;999.90;;;1.00;99.90;;;;;;5096551;28;20059;-81
2021/10/31 01:57:39;;;;;;;1999.90;999.90;;;0.90;99.90;;;;;;5096675;28;20023;-82
2021/10/31 02:00:08;;;;;;;1999.90;999.90;;;0.90;99.90;;;;;;5096537;28;20020;-81
2021/10/31 02:02:38;;;;;;;1999.90;999.90;;;0.90;99.90;;;;;;5096713;28;20495;-80
2021/10/31 02:05:06;;;;;;;1999.90;999.90;;;0.80;99.90;;;;;;5096403;28;20077;-81
2021/10/31 02:07:35;;;;;;;1999.90;999.90;;;0.90;99.90;;;;;;5096625;28;20046;-81
2021/10/31 02:10:01;;;;;;;1999.90;999.90;;;1.00;99.90;;;;;;5096611;28;20023;-80
2021/10/31 02:12:27;;;;;;;1999.90;999.90;;;0.90;99.90;;;;;;5096358;28;20024;-83
2021/10/31 02:14:54;;;;;;;1999.90;999.90;;;0.90;99.90;;;;;;5096088;28;20026;-81
2021/10/31 02:17:20;;;;;;;1999.90;999.90;;;0.80;99.90;;;;;;5096534;28;20071;-81
2021/10/31 02:19:47;;;;;;;1999.90;999.90;;;0.90;99.90;;;;;;5114493;28;20020;-80
2021/10/31 02:22:26;;;;;;;1999.90;999.90;;;0.90;99.90;;;;;;5096492;28;20035;-81
2021/10/31 02:24:52;;;;;;;1999.90;999.90;;;1.00;99.90;;;;;;5114704;28;20455;-81
2021/10/31 02:27:20;;;;;;;1999.90;999.90;;;0.90;99.90;;;;;;5096119;28;20375;-82
2021/10/31 02:29:54;;;;;;;1999.90;999.90;;;0.80;99.90;;;;;;5096210;28;20023;-80
2021/10/31 02:32:22;;;;;;;1999.90;999.90;;;0.90;99.90;;;;;;5096134;28;20016;-80
2021/10/31 02:34:49;;;;;;;1999.90;999.90;;;0.90;99.90;;;;;;5095818;28;20028;-81
2021/10/31 02:37:15;;;;;;;1999.90;999.90;;;0.80;99.90;;;;;;5113762;28;20068;-80
2021/10/31 02:39:41;;;;;;;1999.90;999.90;;;0.80;99.90;;;;;;5095882;28;20110;-81
2021/10/31 02:42:07;;;;;;;1999.90;999.90;;;0.80;99.90;;;;;;5114133;28;20020;-81
2021/10/31 02:44:33;;;;;;;1999.90;999.90;;;0.90;99.90;;;;;;5096048;28;20035;-80
2021/10/31 02:46:59;;;;;;;1999.90;999.90;;;0.90;99.90;;;;;;5096040;28;20100;-81
2021/10/31 02:49:26;;;;;;;1999.90;999.90;;;1.00;99.90;;;;;;5095793;28;20081;-80
2021/10/31 02:52:04;;;;;;;1999.90;999.90;;;1.00;99.90;;;;;;5096149;28;20035;-81
2021/10/31 02:54:37;;;;;;;1999.90;999.90;;;1.00;99.90;;;;;;5095773;28;20031;-80
2021/10/31 02:57:19;;;;;;;1999.90;999.90;;;1.00;99.90;;;;;;5095826;28;20016;-81
2021/10/31 02:59:56;;;;;;;1999.90;999.90;;;1.10;99.90;;;;;;5114228;28;20474;-81
2021/10/31 03:02:22;;;;;;;1999.90;999.90;;;1.10;99.90;;;;;;5095935;28;20506;-79
2021/10/31 03:04:49;;;;;;;1999.90;999.90;;;1.00;99.90;;;;;;5095875;28;20032;-80
2021/10/31 03:07:15;;;;;;;1999.90;999.90;;;1.00;99.90;;;;;;5095896;28;20094;-80
2021/10/31 03:09:46;;;;;;;1999.90;999.90;;;1.10;99.90;;;;;;5095765;28;20031;-79
2021/10/31 03:12:12;;;;;;;1999.90;999.90;;;1.00;99.90;;;;;;5095776;28;20028;-79
2021/10/31 03:14:37;;;;;;;1999.90;999.90;;;0.90;99.90;;;;;;5095684;28;20028;-81
2021/10/31 03:17:04;;;;;;;1999.90;999.90;;;0.90;99.90;;;;;;5095490;28;20066;-80
2021/10/31 03:19:30;;;;;;;1999.90;999.90;;;1.00;99.90;;;;;;5095442;28;20028;-80
2021/10/31 03:21:56;;;;;;;1999.90;999.90;;;1.00;99.90;;;;;;5095750;28;20080;-81
2021/10/31 03:24:22;;;;;;;1999.90;999.90;;;0.90;99.90;;;;;;5095549;28;20035;-80
2021/10/31 03:26:48;;;;;;;1999.90;999.90;;;1.00;99.90;;;;;;5095595;28;20123;-80
2021/10/31 03:29:13;;;;;;;1999.90;999.90;;;0.90;99.90;;;;;;5095833;28;20064;-80
2021/10/31 03:31:39;;;;;;;1999.90;999.90;;;1.00;99.90;;;;;;5095661;28;20057;-82
2021/10/31 03:34:05;;;;;;;1999.90;999.90;;;0.90;99.90;;;;;;5095621;28;20031;-80
2021/10/31 03:36:30;;;;;;;1999.90;999.90;;;0.90;99.90;;;;;;5113659;28;20024;-80
2021/10/31 03:38:56;;;;;;;1999.90;999.90;;;0.80;99.90;;;;;;5095744;28;20028;-80
2021/10/31 03:41:22;;;;;;;1999.90;999.90;;;0.90;99.90;;;;;;5095549;28;20026;-81
2021/10/31 03:43:48;;;;;;;1999.90;999.90;;;0.80;99.90;;;;;;5095324;28;20035;-81
2021/10/31 03:46:13;;;;;;;1999.90;999.90;;;1.00;99.90;;;;;;5113720;28;20031;-81
2021/10/31 03:48:39;;;;;;;1999.90;999.90;;;0.90;99.90;;;;;;5097469;28;20035;-81
2021/10/31 03:51:05;;;;;;;1999.90;999.90;;;0.90;99.90;;;;;;5098976;28;20023;-81
2021/10/31 03:53:30;;;;;;;1999.90;999.90;;;1.00;99.90;;;;;;5099099;28;20032;-80
2021/10/31 03:55:56;;;;;;;1999.90;999.90;;;0.90;99.90;;;;;;5098880;28;20057;-81
2021/10/31 03:58:22;;;;;;;1999.90;999.90;;;0.90;99.90;;;;;;5099140;28;20107;-81
2021/10/31 04:00:48;;;;;;;1999.90;999.90;;;0.90;99.90;;;;;;5098847;28;20118;-81
2021/10/31 04:03:13;;;;;;;1999.90;999.90;;;1.00;99.90;;;;;;5099010;28;20076;-81
2021/10/31 04:05:39;;;;;;;1999.90;999.90;;;1.00;99.90;;;;;;5099037;28;20024;-79
2021/10/31 04:08:05;;;;;;;1999.90;999.90;;;1.00;99.90;;;;;;5098757;28;20031;-82
2021/10/31 04:10:31;;;;;;;1999.90;999.90;;;0.90;99.90;;;;;;5098966;28;20165;-80
2021/10/31 04:12:57;;;;;;;1999.90;999.90;;;1.10;99.90;;;;;;5098422;28;20057;-81
2021/10/31 04:15:23;;;;;;;1999.90;999.90;;;1.00;99.90;;;;;;5098591;28;20111;-80
2021/10/31 04:17:49;;;;;;;1999.90;999.90;;;1.10;99.90;;;;;;5098577;28;20023;-81
2021/10/31 04:20:15;;;;;;;1999.90;999.90;;;1.10;99.90;;;;;;5116868;28;20018;-82
2021/10/31 04:22:41;;;;;;;1999.90;999.90;;;1.00;99.90;;;;;;5098844;28;20028;-79
2021/10/31 04:25:07;;;;;;;1999.90;999.90;;;1.00;99.90;;;;;;5098254;28;20402;-80
2021/10/31 04:27:33;;;;;;;1999.90;999.90;;;1.00;99.90;;;;;;5098320;28;20028;-81
2021/10/31 04:29:58;;;;;;;1999.90;999.90;;;1.00;99.90;;;;;;5116619;28;20098;-83
2021/10/31 04:32:25;;;;;;;1999.90;999.90;;;0.90;99.90;;;;;;5116683;28;20039;-80
2021/10/31 04:34:51;;;;;;;1999.90;999.90;;;1.10;99.90;;;;;;5097828;28;20024;-81
2021/10/31 04:37:17;;;;;;;1999.90;999.90;;;1.00;99.90;;;;;;5116345;28;20020;-81
2021/10/31 04:39:44;;;;;;;1999.90;999.90;;;1.00;99.90;;;;;;5098262;28;20028;-81
2021/10/31 04:42:11;;;;;;;1999.90;999.90;;;0.90;99.90;;;;;;5098672;28;20030;-81
2021/10/31 04:44:38;;;;;;;1999.90;999.90;;;1.00;99.90;;;;;;5098327;28;20062;-81
2021/10/31 04:47:04;;;;;;;1999.90;999.90;;;1.00;99.90;;;;;;5098132;28;20019;-81
2021/10/31 04:49:31;;;;;;;1999.90;999.90;;;1.10;99.90;;;;;;5097680;28;20089;-80
2021/10/31 04:51:57;;;;;;;1999.90;999.90;;;1.00;99.90;;;;;;5097855;28;20031;-80
2021/10/31 04:54:23;;;;;;;1999.90;999.90;;;0.90;99.90;;;;;;5098158;28;20023;-82
2021/10/31 04:56:49;;;;;;;1999.90;999.90;;;1.10;99.90;;;;;;5116323;28;20020;-82
2021/10/31 04:59:15;;;;;;;1999.90;999.90;;;1.00;99.90;;;;;;5116057;28;20513;-80
2021/10/31 05:01:41;;;;;;;1999.90;999.90;;;1.00;99.90;;;;;;5097831;28;20099;-81
2021/10/31 05:04:06;;;;;;;1999.90;999.90;;;1.00;99.90;;;;;;5097531;28;20055;-81
2021/10/31 05:06:32;;;;;;;1999.90;999.90;;;1.00;99.90;;;;;;5097940;28;20042;-80
2021/10/31 05:08:58;;;;;;;1999.90;999.90;;;1.00;99.90;;;;;;5097943;28;20474;-81
2021/10/31 05:11:24;;;;;;;1999.90;999.90;;;1.90;99.90;;;;;;5115887;28;20019;-78
2021/10/31 05:13:49;;;;;;;1999.90;999.90;;;1.70;99.90;;;;;;5096685;28;20056;-78
2021/10/31 05:16:15;;;;;;;1999.90;999.90;;;1.50;99.90;;;;;;5119466;28;20111;-79
2021/10/31 05:18:41;;;;;;;1999.90;999.90;;;1.50;99.90;;;;;;5114867;28;20020;-79
2021/10/31 05:21:07;;;;;;;1999.90;999.90;;;1.30;99.90;;;;;;5096960;28;20038;-80
2021/10/31 05:23:33;;;;;;;1999.90;999.90;;;1.20;99.90;;;;;;5115186;28;20019;-79
2021/10/31 05:25:59;;;;;;;1999.90;999.90;;;1.10;99.90;;;;;;5096591;28;20061;-79
2021/10/31 05:28:25;;;;;;;1999.90;999.90;;;1.10;99.90;;;;;;5096375;28;20104;-79
2021/10/31 05:30:52;;;;;;;1999.90;999.90;;;1.00;99.90;;;;;;5114911;28;20544;-79
2021/10/31 05:33:20;;;;;;;1999.90;999.90;;;1.00;99.90;;;;;;5096885;28;20030;-79
2021/10/31 05:35:46;;;;;;;1999.90;999.90;;;0.90;99.90;;;;;;5096652;28;20034;-80
2021/10/31 05:38:17;;;;;;;1999.90;999.90;;;0.80;99.90;;;;;;5096470;28;20036;-82
2021/10/31 05:40:43;;;;;;;1999.90;999.90;;;0.80;99.90;;;;;;5096611;28;20538;-79
2021/10/31 05:43:09;;;;;;;1999.90;999.90;;;0.90;99.90;;;;;;5096618;28;20115;-79
2021/10/31 05:45:35;;;;;;;1999.90;999.90;;;0.90;99.90;;;;;;5095817;28;20027;-78
2021/10/31 05:48:01;;;;;;;1999.90;999.90;;;0.80;99.90;;;;;;5095480;28;20065;-78
2021/10/31 05:50:27;;;;;;;1999.90;999.90;;;0.80;99.90;;;;;;5114073;28;20554;-79
2021/10/31 05:52:53;;;;;;;1999.90;999.90;;;0.80;99.90;;;;;;5097653;28;20028;-80
2021/10/31 05:55:19;;;;;;;1999.90;999.90;;;0.90;99.90;;;;;;5095645;28;20034;-79
2021/10/31 05:57:45;;;;;;;1999.90;999.90;;;0.80;99.90;;;;;;5095232;28;20019;-80
2021/10/31 06:00:13;;;;;;;1999.90;999.90;;;0.80;99.90;;;;;;5095125;28;20115;-79
2021/10/31 06:02:38;;;;;;;1999.90;999.90;;;0.80;99.90;;;;;;5095433;28;20047;-79
2021/10/31 06:05:05;;;;;;;1999.90;999.90;;;0.90;99.90;;;;;;5095302;28;20097;-79
2021/10/31 06:07:32;;;;;;;1999.90;999.90;;;0.90;99.90;;;;;;5095663;28;20402;-79
2021/10/31 06:09:58;;;;;;;1999.90;999.90;;;0.90;99.90;;;;;;5095139;28;20038;-79
2021/10/31 06:12:24;;;;;;;1999.90;999.90;;;0.90;99.90;;;;;;5113370;28;20423;-80
2021/10/31 06:14:50;;;;;;;1999.90;999.90;;;1.00;99.90;;;;;;5095103;28;20058;-79
2021/10/31 06:17:16;;;;;;;1999.90;999.90;;;0.90;99.90;;;;;;5094941;28;20169;-78
2021/10/31 06:19:42;;;;;;;1999.90;999.90;;;1.00;99.90;;;;;;5113599;28;20103;-79
2021/10/31 06:22:07;;;;;;;1999.90;999.90;;;1.00;99.90;;;;;;5095209;28;20028;-78
2021/10/31 06:24:33;;;;;;;1999.90;999.90;;;1.00;99.90;;;;;;5094890;28;20364;-78
2021/10/31 06:26:59;;;;;;;1999.90;999.90;;;1.00;99.90;;;;;;5095074;28;20023;-78
2021/10/31 06:29:26;;;;;;;1999.90;999.90;;;1.00;99.90;;;;;;5113164;28;20112;-78
2021/10/31 06:31:52;;;;;;;1999.90;999.90;;;0.90;99.90;;;;;;5113314;28;20030;-80
2021/10/31 06:34:18;;;;;;;1999.90;999.90;;;1.00;99.90;;;;;;5094690;28;20123;-82
2021/10/31 06:36:44;;;;;;;1999.90;999.90;;;0.90;99.90;;;;;;5094704;28;20110;-78
2021/10/31 06:39:11;;;;;;;1999.90;999.90;;;0.90;99.90;;;;;;5095218;28;20081;-80
2021/10/31 06:41:37;;;;;;;1999.90;999.90;;;0.90;99.90;;;;;;5094816;28;20034;-79
2021/10/31 06:44:03;;;;;;;1999.90;999.90;;;1.00;99.90;;;;;;5095767;28;20059;-82
2021/10/31 06:46:29;;;;;;;1999.90;999.90;;;1.00;99.90;;;;;;5113444;28;20016;-81
2021/10/31 06:48:55;;;;;;;1999.90;999.90;;;1.10;99.90;;;;;;5095364;28;20046;-82
2021/10/31 06:51:21;;;;;;;1999.90;999.90;;;1.10;99.90;;;;;;5095347;28;20024;-85
2021/10/31 06:53:48;;;;;;;1999.90;999.90;;;1.20;99.90;;;;;;5113506;28;20041;-79
2021/10/31 06:56:14;;;;;;;1999.90;999.90;;;1.30;99.90;;;;;;5095086;28;20072;-78
2021/10/31 06:58:40;;;;;;;1999.90;999.90;;;1.20;99.90;;;;;;5112961;28;20035;-80
2021/10/31 07:01:06;;;;;;;1999.90;999.90;;;1.20;99.90;;;;;;5094641;28;20526;-78
2021/10/31 07:03:31;;;;;;;1999.90;999.90;;;1.20;99.90;;;;;;5112988;28;20410;-80
2021/10/31 07:05:59;;;;;;;1999.90;999.90;;;1.20;99.90;;;;;;5094661;28;20020;-81
2021/10/31 07:08:25;;;;;;;1999.90;999.90;;;1.30;99.90;;;;;;5112782;28;20036;-78
2021/10/31 07:10:50;;;;;;;1999.90;999.90;;;1.40;99.90;;;;;;5112977;28;20030;-80
2021/10/31 07:13:16;;;;;;;1999.90;999.90;;;1.30;99.90;;;;;;5112568;28;20034;-80
2021/10/31 07:15:42;;;;;;;1999.90;999.90;;;1.40;99.90;;;;;;5112460;28;20076;-80
2021/10/31 07:18:08;;;;;;;1999.90;999.90;;;1.30;99.90;;;;;;5094491;28;20419;-79
2021/10/31 07:20:34;;;;;;;1999.90;999.90;;;1.40;99.90;;;;;;5112493;28;20062;-81
2021/10/31 07:23:00;;;;;;;1999.90;999.90;;;1.40;99.90;;;;;;5114006;28;20031;-81
2021/10/31 07:25:27;;;;;;;1999.90;999.90;;;1.50;99.90;;;;;;5116010;28;20133;-78
2021/10/31 07:27:53;;;;;;;1999.90;999.90;;;1.60;99.90;;;;;;5116287;28;20035;-79
2021/10/31 07:30:20;;;;;;;1999.90;999.90;;;1.70;99.90;;;;;;5116262;28;20063;-77
2021/10/31 07:33:01;;;;;;;1999.90;999.90;;;1.70;99.90;;;;;;5097902;28;20035;-80
2021/10/31 07:35:28;;;;;;;1999.90;999.90;;;1.80;99.90;;;;;;5099079;28;20028;-80
2021/10/31 07:37:55;;;;;;;1999.90;999.90;;;1.90;99.90;;;;;;5099027;28;20027;-79
2021/10/31 07:40:22;;;;;;;1999.90;999.90;;;2.00;99.90;;;;;;5098593;28;20028;-80
2021/10/31 07:42:48;;;;;;;1999.90;999.90;;;2.00;99.90;;;;;;5098348;28;20402;-79
2021/10/31 07:45:14;;;;;;;1999.90;999.90;;;2.00;99.90;;;;;;5098075;28;20028;-79
2021/10/31 07:47:40;;;;;;;1999.90;999.90;;;3.40;99.90;;;;;;5098524;28;20031;-78
2021/10/31 07:50:07;;;;;;;1999.90;999.90;;;5.00;99.90;;;;;;5097853;28;20047;-80
2021/10/31 07:52:34;;;;;;;1999.90;999.90;;;5.00;99.90;;;;;;5097524;28;20028;-78
2021/10/31 07:55:02;;;;;;;1999.90;999.90;;;4.70;99.90;;;;;;5097500;28;20030;-82
2021/10/31 07:57:30;;;;;;;1999.90;999.90;;;4.40;99.90;;;;;;5116065;28;20111;-80
2021/10/31 07:59:55;;;;;;;1999.90;999.90;;;4.10;99.90;;;;;;5116083;28;20024;-79
2021/10/31 08:02:21;;;;;;;1999.90;999.90;;;4.20;99.90;;;;;;5117745;28;20481;-80
2021/10/31 08:04:47;;;;;;;1999.90;999.90;;;4.00;99.90;;;;;;5097456;28;20020;-80
2021/10/31 08:07:13;;;;;;;1999.90;999.90;;;3.80;99.90;;;;;;5097538;28;20020;-82
2021/10/31 08:09:39;;;;;;;1999.90;999.90;;;4.50;99.90;;;;;;5097751;28;20032;-80
2021/10/31 08:12:06;;;;;;;1999.90;999.90;;;5.30;99.90;;;;;;5097011;28;20069;-80
2021/10/31 08:14:32;;;;;;;1999.90;999.90;;;5.00;99.90;;;;;;5097245;28;20043;-81
2021/10/31 08:16:58;;;;;;;1999.90;999.90;;;4.60;99.90;;;;;;5097792;28;20027;-81
2021/10/31 08:19:24;;;;;;;1999.90;999.90;;;4.30;99.90;;;;;;5098443;28;20027;-81
2021/10/31 08:21:52;;;;;;;1999.90;999.90;;;4.00;99.90;;;;;;5098448;28;20489;-79
2021/10/31 08:24:18;;;;;;;1999.90;999.90;;;3.90;99.90;;;;;;5116371;28;20024;-83
2021/10/31 08:26:44;;;;;;;1999.90;999.90;;;3.70;99.90;;;;;;5098465;28;20118;-82
2021/10/31 08:29:12;;;;;;;1999.90;999.90;;;3.50;99.90;;;;;;5097626;28;20126;-79
2021/10/31 08:31:41;;;;;;;1999.90;999.90;;;3.50;99.90;;;;;;5115974;28;20031;-81
2021/10/31 08:34:07;;;;;;;1999.90;999.90;;;3.40;99.90;;;;;;5097578;28;20039;-81
2021/10/31 08:36:33;;;;;;;1999.90;999.90;;;3.50;99.90;;;;;;5097222;28;20024;-77
2021/10/31 08:39:00;;;;;;;1999.90;999.90;;;3.70;99.90;;;;;;5115517;28;20024;-75
2021/10/31 08:41:27;;;;;;;1999.90;999.90;;;3.80;99.90;;;;;;5118013;28;20012;-81
2021/10/31 08:43:55;;;;;;;1999.90;999.90;;;3.80;99.90;;;;;;5118532;28;20054;-78
2021/10/31 08:46:21;;;;;;;1999.90;999.90;;;3.70;99.90;;;;;;5117595;28;20024;-83
2021/10/31 08:48:48;;;;;;;1999.90;999.90;;;3.80;99.90;;;;;;5097336;28;20044;-76
2021/10/31 08:51:15;;;;;;;1999.90;999.90;;;3.90;99.90;;;;;;5114789;28;20024;-78
2021/10/31 08:53:41;;;;;;;1999.90;999.90;;;4.00;99.90;;;;;;5114849;28;20111;-76
2021/10/31 08:56:11;;;;;;;1999.90;999.90;;;4.00;99.90;;;;;;5114600;28;20439;-78
2021/10/31 08:58:44;;;;;;;1999.90;999.90;;;3.90;99.90;;;;;;5096469;28;20023;-76
2021/10/31 09:01:11;;;;;;;1999.90;999.90;;;3.90;99.90;;;;;;5114404;28;20621;-75
2021/10/31 09:03:37;;;;;;;1999.90;999.90;;;3.90;99.90;;;;;;5096336;28;20471;-74
2021/10/31 09:06:03;;;;;;;1999.90;999.90;;;3.90;99.90;;;;;;5114335;28;20019;-75
2021/10/31 09:08:28;;;;;;;1999.90;999.90;;;4.10;99.90;;;;;;5114399;28;20027;-77
2021/10/31 09:10:54;;;;;;;1999.90;999.90;;;4.20;99.90;;;;;;5114275;28;20459;-75
2021/10/31 09:13:21;;;;;;;1999.90;999.90;;;4.30;99.90;;;;;;5095923;28;20023;-76
2021/10/31 09:15:47;;;;;;;1999.90;999.90;;;4.40;99.90;;;;;;5114118;28;20012;-76
2021/10/31 09:18:13;;;;;;;1999.90;999.90;;;4.40;99.90;;;;;;5114168;28;20467;-76
2021/10/31 09:20:39;;;;;;;1999.90;999.90;;;4.50;99.90;;;;;;5113944;28;20120;-77
2021/10/31 09:23:07;;;;;;;1999.90;999.90;;;4.50;99.90;;;;;;5113994;28;20184;-77
2021/10/31 09:25:34;;;;;;;1999.90;999.90;;;4.70;99.90;;;;;;5095233;28;20027;-75
2021/10/31 09:28:01;;;;;;;1999.90;999.90;;;4.80;99.90;;;;;;5113814;28;20039;-75
2021/10/31 09:30:28;;;;;;;1999.90;999.90;;;5.00;99.90;;;;;;5113587;28;20470;-74
2021/10/31 09:32:55;;;;;;;1999.90;999.90;;;5.10;99.90;;;;;;5094768;28;20024;-75
2021/10/31 09:35:24;;;;;;;1999.90;999.90;;;5.20;99.90;;;;;;5095081;28;20111;-77
2021/10/31 09:38:02;;;;;;;1999.90;999.90;;;5.20;99.90;;;;;;5113577;28;20095;-74
2021/10/31 09:40:30;;;;;;;1999.90;999.90;;;5.20;99.90;;;;;;5113462;28;20474;-74
2021/10/31 09:42:58;;;;;;;1999.90;999.90;;;5.30;99.90;;;;;;5113737;28;20102;-80
2021/10/31 09:45:25;;;;;;;1999.90;999.90;;;5.40;99.90;;;;;;5094685;28;20031;-77
2021/10/31 09:48:04;;;;;;;1999.90;999.90;;;5.40;99.90;;;;;;5113604;28;20031;-86
2021/10/31 09:50:31;;;;;;;1999.90;999.90;;;5.30;99.90;;;;;;5113608;28;20479;-81
2021/10/31 09:52:57;;;;;;;1999.90;999.90;;;5.40;99.90;;;;;;5113929;28;20034;-78
2021/10/31 09:55:23;;;;;;;1999.90;999.90;;;5.60;99.90;;;;;;5113472;28;20023;-74
2021/10/31 09:57:50;;;;;;;1999.90;999.90;;;5.80;99.90;;;;;;5113465;28;20027;-79
2021/10/31 10:00:21;;;;;;;1999.90;999.90;;;5.80;99.90;;;;;;5114446;28;20046;-75
2021/10/31 10:05:25;;;;;;;1999.90;999.90;;;5.60;99.90;;;;;;5113884;28;20110;-74
2021/10/31 10:08:15;;;;;;;1999.90;999.90;;;5.60;99.90;;;;;;5114079;28;20470;-78
2021/10/31 10:10:52;;;;;;;1999.90;999.90;;;5.70;99.90;;;;;;5113732;28;20080;-80
2021/10/31 10:13:30;;;;;;;1999.90;999.90;;;6.00;99.90;;;;;;5113641;28;20027;-73
2021/10/31 10:16:24;;;;;;;1999.90;999.90;;;6.00;99.90;;;;;;5112826;28;20073;-75
2021/10/31 10:18:50;;;;;;;1999.90;999.90;;;6.20;99.90;;;;;;5100770;28;20051;-73
2021/10/31 10:21:24;;;;;;;1999.90;999.90;;;6.20;99.90;;;;;;5112557;28;20015;-74
2021/10/31 10:23:55;;;;;;;1999.90;999.90;;;6.20;99.90;;;;;;5112356;28;20062;-74
2021/10/31 10:26:34;;;;;;;1999.90;999.90;;;6.20;99.90;;;;;;5112882;28;20466;-79
2021/10/31 10:29:00;;;;;;;1999.90;999.90;;;6.30;99.90;;;;;;5112765;28;20078;-77
2021/10/31 10:31:26;;;;;;;1999.90;999.90;;;6.30;99.90;;;;;;5112503;28;20020;-77
2021/10/31 10:33:52;;;;;;;1999.90;999.90;;;6.30;99.90;;;;;;5112882;28;20527;-77
2021/10/31 10:36:19;;;;;;;1999.90;999.90;;;6.30;99.90;;;;;;5113018;28;20027;-74
2021/10/31 10:39:08;;;;;;;1999.90;999.90;;;6.50;99.90;;;;;;5112982;28;20051;-77
2021/10/31 10:41:43;;;;;;;1999.90;999.90;;;6.50;99.90;;;;;;5113115;28;20035;-76
2021/10/31 10:44:38;;;;;;;1999.90;999.90;;;6.50;99.90;;;;;;5113070;28;20019;-75
2021/10/31 10:47:18;;;;;;;1999.90;999.90;;;6.70;99.90;;;;;;5091328;28;20042;-75
2021/10/31 10:49:44;;;;;;;1999.90;999.90;;;6.80;99.90;;;;;;5112422;28;20051;-74
2021/10/31 10:52:23;;;;;;;1999.90;999.90;;;6.70;99.90;;;;;;5112647;28;20434;-74
2021/10/31 10:54:48;;;;;;;1999.90;999.90;;;6.60;99.90;;;;;;5112855;28;20023;-75
2021/10/31 10:57:14;;;;;;;1999.90;999.90;;;6.70;99.90;;;;;;5114967;28;20035;-73
2021/10/31 10:59:41;;;;;;;1999.90;999.90;;;6.80;99.90;;;;;;5116993;28;20028;-77
2021/10/31 11:02:15;;;;;;;1999.90;999.90;;;6.90;99.90;;;;;;5116568;28;20027;-74
2021/10/31 11:04:45;;;;;;;1999.90;999.90;;;7.00;99.90;;;;;;5116298;28;20028;-75
2021/10/31 11:07:11;;;;;;;1999.90;999.90;;;7.00;99.90;;;;;;5116836;28;20106;-75
2021/10/31 11:09:48;;;;;;;1999.90;999.90;;;7.00;99.90;;;;;;5116727;28;20036;-75
2021/10/31 11:12:41;;;;;;;1999.90;999.90;;;6.90;99.90;;;;;;5116533;28;20027;-75
2021/10/31 11:15:10;;;;;;;1999.90;999.90;;;7.70;99.90;;;;;;5112475;28;20054;-74
2021/10/31 11:17:37;;;;;;;1999.90;999.90;;;8.10;99.90;;;;;;5098480;28;20035;-73
2021/10/31 11:20:04;;;;;;;1999.90;999.90;;;8.00;99.90;;;;;;5098144;28;20075;-75
2021/10/31 11:22:31;;;;;;;1999.90;999.90;;;7.90;99.90;;;;;;5098412;28;20020;-74
2021/10/31 11:25:01;;;;;;;1999.90;999.90;;;8.00;99.90;;;;;;5116555;28;20027;-74
2021/10/31 11:27:30;;;;;;;1999.90;999.90;;;7.80;99.90;;;;;;5116644;28;20020;-75
2021/10/31 11:29:57;;;;;;;1999.90;999.90;;;7.80;99.90;;;;;;5097919;28;20032;-74
2021/10/31 11:32:26;;;;;;;1999.90;999.90;;;7.70;99.90;;;;;;5116471;28;20463;-74
2021/10/31 11:34:56;;;;;;;1999.90;999.90;;;7.70;99.90;;;;;;5117070;28;20031;-75
2021/10/31 11:37:28;;;;;;;1999.90;999.90;;;7.70;99.90;;;;;;5117155;28;20023;-75
2021/10/31 11:40:01;;;;;;;1999.90;999.90;;;7.90;99.90;;;;;;5116661;28;20024;-76
2021/10/31 11:42:34;;;;;;;1999.90;999.90;;;8.00;99.90;;;;;;5115916;28;20022;-75
2021/10/31 11:45:09;;;;;;;1999.90;999.90;;;8.00;99.90;;;;;;5117323;28;20069;-75
2021/10/31 11:47:37;;;;;;;1999.90;999.90;;;8.40;99.90;;;;;;5116289;28;20020;-74
2021/10/31 11:50:03;;;;;;;1999.90;999.90;;;8.70;99.90;;;;;;5116017;28;20430;-73
2021/10/31 11:52:48;;;;;;;1999.90;999.90;;;9.00;99.90;;;;;;5115954;28;20030;-74
2021/10/31 11:55:28;;;;;;;1999.90;999.90;;;9.10;99.90;;;;;;5116231;28;20023;-77
2021/10/31 11:58:00;;;;;;;1999.90;999.90;;;9.10;99.90;;;;;;5115582;28;20256;-76
2021/10/31 12:00:27;;;;;;;1999.90;999.90;;;8.80;99.90;;;;;;5115584;28;20028;-76
2021/10/31 12:03:01;;;;;;;1999.90;999.90;;;8.80;99.90;;;;;;5115723;28;20110;-75
2021/10/31 12:05:38;;;;;;;1999.90;999.90;;;8.60;99.90;;;;;;5080023;28;20028;-74
2021/10/31 12:08:08;;;;;;;1999.90;999.90;;;8.50;99.90;;;;;;5114895;28;20066;-74
2021/10/31 12:10:52;;;;;;;1999.90;999.90;;;8.40;99.90;;;;;;5115629;28;20486;-75
2021/10/31 12:13:22;;;;;;;1999.90;999.90;;;8.40;99.90;;;;;;5115216;28;20051;-76
2021/10/31 12:16:04;;;;;;;1999.90;999.90;;;8.40;99.90;;;;;;5115440;28;20026;-74
2021/10/31 12:18:46;;;;;;;1999.90;999.90;;;8.60;99.90;;;;;;5115523;28;20034;-76